AAL578 KDFW-KJFK
Flight info
| Callsign | AAL578 |
|---|---|
| Flight time | N/A |
| Altitude | 37000 |
| Route | TRYTN4 LOOSE DCT MEMFS Q29 JHW Q476 WLKES PUCKY1 |
| Aircraft | B738/M-VGDW/C |
Departure
| Time | 2026-04-30 20:42 |
|---|---|
| Airport | Dallas Fort Worth International Airport (KDFW) |
Arrival
| Time | N/A |
|---|---|
| Airport | John F. Kennedy International Airport (KJFK) |
| Time | Latitude | Longitude | Altitude | Speed | Heading |
|---|---|---|---|---|---|
| 2026-04-30 20:11 | 32.89745 | -97.03506 | 580 ft | 0 kts | 272° |
| 2026-04-30 20:28 | 32.89743 | -97.03457 | 580 ft | 4 kts | 271° |
| 2026-04-30 20:28 | 32.89746 | -97.03408 | 579 ft | 2 kts | 226° |
| 2026-04-30 20:29 | 32.89746 | -97.03402 | 579 ft | 2 kts | 181° |
| 2026-04-30 20:30 | 32.89738 | -97.03402 | 579 ft | 0 kts | 180° |
| 2026-04-30 20:32 | 32.89721 | -97.03399 | 579 ft | 3 kts | 155° |
| 2026-04-30 20:33 | 32.89710 | -97.03356 | 582 ft | 6 kts | 94° |
| 2026-04-30 20:33 | 32.89618 | -97.03284 | 579 ft | 10 kts | 105° |
| 2026-04-30 20:33 | 32.89594 | -97.03202 | 583 ft | 12 kts | 152° |
| 2026-04-30 20:34 | 32.89379 | -97.03196 | 573 ft | 17 kts | 181° |
| 2026-04-30 20:34 | 32.89150 | -97.03198 | 572 ft | 17 kts | 180° |
| 2026-04-30 20:35 | 32.89069 | -97.03198 | 572 ft | 18 kts | 180° |
| 2026-04-30 20:35 | 32.88936 | -97.03199 | 570 ft | 18 kts | 180° |
| 2026-04-30 20:35 | 32.88695 | -97.03200 | 572 ft | 16 kts | 180° |
| 2026-04-30 20:36 | 32.88586 | -97.03201 | 569 ft | 15 kts | 180° |
| 2026-04-30 20:36 | 32.88483 | -97.03201 | 575 ft | 14 kts | 180° |
| 2026-04-30 20:36 | 32.88300 | -97.03202 | 578 ft | 12 kts | 180° |
| 2026-04-30 20:37 | 32.88216 | -97.03203 | 574 ft | 12 kts | 180° |
| 2026-04-30 20:37 | 32.88135 | -97.03203 | 574 ft | 11 kts | 180° |
| 2026-04-30 20:37 | 32.88077 | -97.03203 | 578 ft | 1 kts | 181° |
| 2026-04-30 20:39 | 32.87998 | -97.03204 | 576 ft | 9 kts | 182° |
| 2026-04-30 20:39 | 32.87930 | -97.03197 | 575 ft | 7 kts | 158° |
| 2026-04-30 20:39 | 32.87905 | -97.03150 | 579 ft | 7 kts | 96° |
| 2026-04-30 20:40 | 32.87905 | -97.03136 | 575 ft | 0 kts | 90° |
| 2026-04-30 20:40 | 32.87905 | -97.03126 | 578 ft | 4 kts | 91° |
| 2026-04-30 20:40 | 32.87904 | -97.03058 | 576 ft | 11 kts | 90° |
| 2026-04-30 20:41 | 32.87954 | -97.03008 | 574 ft | 0 kts | 0° |
| 2026-04-30 20:41 | 32.88064 | -97.03008 | 575 ft | 46 kts | 0° |
| 2026-04-30 20:42 | 32.88618 | -97.03005 | 573 ft | 111 kts | 0° |
| 2026-04-30 20:42 | 32.89583 | -97.02997 | 577 ft | 164 kts | 0° |
| 2026-04-30 20:42 | 32.92074 | -97.02998 | 1737 ft | 185 kts | 4° |
| 2026-04-30 20:43 | 32.93417 | -97.02972 | 2192 ft | 206 kts | 5° |
| 2026-04-30 20:43 | 32.94930 | -97.02929 | 2429 ft | 226 kts | 4° |
| 2026-04-30 20:43 | 32.96539 | -97.02884 | 2828 ft | 237 kts | 5° |
| 2026-04-30 20:44 | 32.99889 | -97.02778 | 4042 ft | 246 kts | 5° |
| 2026-04-30 20:44 | 33.01627 | -97.02717 | 4571 ft | 253 kts | 3° |
| 2026-04-30 20:44 | 33.05181 | -97.02541 | 5747 ft | 257 kts | 10° |
| 2026-04-30 20:45 | 33.07823 | -96.99881 | 6748 ft | 264 kts | 72° |
| 2026-04-30 20:45 | 33.08128 | -96.97713 | 7159 ft | 269 kts | 86° |
| 2026-04-30 20:45 | 33.08256 | -96.95454 | 7557 ft | 276 kts | 87° |
| 2026-04-30 20:46 | 33.07628 | -96.88401 | 8770 ft | 308 kts | 102° |
| 2026-04-30 20:46 | 33.07240 | -96.85856 | 9425 ft | 313 kts | 101° |
| 2026-04-30 20:47 | 33.06232 | -96.80662 | 10346 ft | 338 kts | 112° |
| 2026-04-30 20:47 | 33.05327 | -96.77984 | 10523 ft | 358 kts | 115° |
| 2026-04-30 20:48 | 33.03228 | -96.72242 | 10932 ft | 394 kts | 116° |
| 2026-04-30 20:48 | 33.02139 | -96.69207 | 11439 ft | 400 kts | 115° |
| 2026-04-30 20:48 | 33.01057 | -96.66132 | 12042 ft | 404 kts | 115° |
| 2026-04-30 20:48 | 32.99992 | -96.63069 | 12634 ft | 408 kts | 115° |
| 2026-04-30 20:49 | 32.98899 | -96.59908 | 13140 ft | 416 kts | 115° |
| 2026-04-30 20:49 | 32.97793 | -96.56698 | 13671 ft | 422 kts | 116° |
| 2026-04-30 20:49 | 32.96670 | -96.53441 | 14142 ft | 427 kts | 116° |
| 2026-04-30 20:50 | 32.94385 | -96.46823 | 15019 ft | 437 kts | 116° |
| 2026-04-30 20:50 | 32.93220 | -96.43454 | 15465 ft | 442 kts | 116° |
| 2026-04-30 20:50 | 32.92037 | -96.40039 | 15911 ft | 448 kts | 116° |
| 2026-04-30 20:50 | 32.90894 | -96.36569 | 16313 ft | 456 kts | 109° |
| 2026-04-30 20:51 | 32.90463 | -96.32791 | 16716 ft | 466 kts | 89° |
| 2026-04-30 20:51 | 32.92111 | -96.25416 | 17647 ft | 469 kts | 65° |
| 2026-04-30 20:51 | 32.93338 | -96.21802 | 18075 ft | 474 kts | 64° |
| 2026-04-30 20:52 | 32.94585 | -96.18151 | 18476 ft | 478 kts | 64° |
| 2026-04-30 20:52 | 32.95823 | -96.14470 | 18917 ft | 480 kts | 65° |
| 2026-04-30 20:52 | 32.98254 | -96.07046 | 19862 ft | 482 kts | 66° |
| 2026-04-30 20:53 | 32.99458 | -96.03310 | 20287 ft | 484 kts | 66° |
| 2026-04-30 20:53 | 33.00663 | -95.99561 | 20699 ft | 486 kts | 66° |
| 2026-04-30 20:53 | 33.01875 | -95.95788 | 21104 ft | 488 kts | 66° |
| 2026-04-30 20:54 | 33.04310 | -95.88204 | 21872 ft | 493 kts | 66° |
| 2026-04-30 20:54 | 33.05540 | -95.84370 | 22245 ft | 495 kts | 66° |
| 2026-04-30 20:54 | 33.06773 | -95.80527 | 22603 ft | 497 kts | 66° |
| 2026-04-30 20:55 | 33.09244 | -95.72835 | 23305 ft | 502 kts | 66° |
| 2026-04-30 20:55 | 33.10495 | -95.68933 | 23621 ft | 505 kts | 66° |
| 2026-04-30 20:55 | 33.11751 | -95.65012 | 23881 ft | 507 kts | 66° |
| 2026-04-30 20:56 | 33.14281 | -95.57095 | 24349 ft | 513 kts | 66° |
| 2026-04-30 20:56 | 33.15552 | -95.53106 | 24589 ft | 516 kts | 66° |
| 2026-04-30 20:56 | 33.18113 | -95.45055 | 25082 ft | 521 kts | 66° |
| 2026-04-30 20:57 | 33.19398 | -95.41007 | 25336 ft | 523 kts | 66° |
| 2026-04-30 20:57 | 33.20690 | -95.36933 | 25562 ft | 525 kts | 66° |
| 2026-04-30 20:57 | 33.21985 | -95.32841 | 25783 ft | 528 kts | 66° |
| 2026-04-30 20:58 | 33.24576 | -95.24643 | 26218 ft | 533 kts | 65° |
| 2026-04-30 20:58 | 33.25887 | -95.20488 | 26457 ft | 535 kts | 65° |
| 2026-04-30 20:58 | 33.27199 | -95.16321 | 26681 ft | 537 kts | 65° |
| 2026-04-30 20:58 | 33.28518 | -95.12129 | 26889 ft | 540 kts | 65° |
| 2026-04-30 20:59 | 33.31170 | -95.03679 | 27306 ft | 544 kts | 65° |
| 2026-04-30 20:59 | 33.32499 | -94.99435 | 27523 ft | 546 kts | 65° |
| 2026-04-30 21:00 | 33.35169 | -94.90892 | 27976 ft | 551 kts | 65° |
| 2026-04-30 21:00 | 33.37851 | -94.82285 | 28550 ft | 552 kts | 65° |
| 2026-04-30 21:01 | 33.40525 | -94.73677 | 29224 ft | 551 kts | 65° |
| 2026-04-30 21:01 | 33.41862 | -94.69364 | 29512 ft | 551 kts | 65° |
| 2026-04-30 21:01 | 33.44514 | -94.60795 | 30084 ft | 552 kts | 65° |
| 2026-04-30 21:02 | 33.45847 | -94.56479 | 30339 ft | 552 kts | 65° |
| 2026-04-30 21:02 | 33.47179 | -94.52160 | 30582 ft | 552 kts | 65° |
| 2026-04-30 21:02 | 33.48509 | -94.47840 | 30817 ft | 553 kts | 65° |
| 2026-04-30 21:02 | 33.49838 | -94.43516 | 31044 ft | 553 kts | 65° |
| 2026-04-30 21:03 | 33.51169 | -94.39184 | 31271 ft | 554 kts | 65° |
| 2026-04-30 21:03 | 33.52501 | -94.34838 | 31510 ft | 554 kts | 65° |
| 2026-04-30 21:03 | 33.53826 | -94.30508 | 31739 ft | 554 kts | 65° |
| 2026-04-30 21:03 | 33.55154 | -94.26166 | 31960 ft | 555 kts | 65° |
| 2026-04-30 21:04 | 33.56470 | -94.21818 | 32183 ft | 555 kts | 65° |
| 2026-04-30 21:04 | 33.57773 | -94.17461 | 32397 ft | 556 kts | 65° |
| 2026-04-30 21:04 | 33.60368 | -94.08704 | 32827 ft | 557 kts | 65° |
| 2026-04-30 21:05 | 33.61644 | -94.04390 | 33020 ft | 558 kts | 65° |
| 2026-04-30 21:05 | 33.62942 | -94.00001 | 33243 ft | 558 kts | 65° |
| 2026-04-30 21:05 | 33.64238 | -93.95620 | 33466 ft | 558 kts | 65° |
| 2026-04-30 21:05 | 33.65537 | -93.91225 | 33695 ft | 558 kts | 65° |
| 2026-04-30 21:06 | 33.66833 | -93.86835 | 33914 ft | 558 kts | 65° |
| 2026-04-30 21:06 | 33.68128 | -93.82443 | 34102 ft | 558 kts | 65° |
| 2026-04-30 21:06 | 33.69422 | -93.78048 | 34312 ft | 558 kts | 65° |
| 2026-04-30 21:06 | 33.70711 | -93.73660 | 34527 ft | 557 kts | 65° |
| 2026-04-30 21:07 | 33.71998 | -93.69272 | 34745 ft | 556 kts | 65° |
| 2026-04-30 21:07 | 33.73280 | -93.64896 | 34955 ft | 555 kts | 65° |
| 2026-04-30 21:07 | 33.74558 | -93.60527 | 35166 ft | 554 kts | 65° |
| 2026-04-30 21:07 | 33.75836 | -93.56150 | 35372 ft | 553 kts | 65° |
| 2026-04-30 21:08 | 33.77107 | -93.51792 | 35572 ft | 552 kts | 65° |
| 2026-04-30 21:08 | 33.78373 | -93.47444 | 35766 ft | 552 kts | 65° |
| 2026-04-30 21:08 | 33.79638 | -93.43093 | 35952 ft | 551 kts | 65° |
| 2026-04-30 21:08 | 33.80902 | -93.38741 | 36150 ft | 550 kts | 65° |
| 2026-04-30 21:09 | 33.82157 | -93.34410 | 36408 ft | 547 kts | 65° |
| 2026-04-30 21:09 | 33.83403 | -93.30101 | 36660 ft | 544 kts | 65° |
| 2026-04-30 21:09 | 33.84645 | -93.25803 | 36850 ft | 543 kts | 65° |
| 2026-04-30 21:09 | 33.85884 | -93.21513 | 36995 ft | 543 kts | 64° |
| 2026-04-30 21:10 | 33.88365 | -93.12909 | 37054 ft | 547 kts | 65° |
| 2026-04-30 21:10 | 33.90994 | -93.04300 | 37061 ft | 546 kts | 60° |
| 2026-04-30 21:11 | 33.94152 | -92.95975 | 37065 ft | 547 kts | 57° |
| 2026-04-30 21:11 | 33.97411 | -92.87734 | 37061 ft | 549 kts | 57° |
| 2026-04-30 21:12 | 34.00599 | -92.79427 | 37043 ft | 542 kts | 58° |
| 2026-04-30 21:12 | 34.03686 | -92.71182 | 37043 ft | 538 kts | 58° |
| 2026-04-30 21:13 | 34.06750 | -92.62954 | 37055 ft | 537 kts | 58° |
| 2026-04-30 21:13 | 34.09813 | -92.54720 | 37055 ft | 537 kts | 58° |
| 2026-04-30 21:14 | 34.12857 | -92.46529 | 37050 ft | 537 kts | 58° |
| 2026-04-30 21:14 | 34.15914 | -92.38285 | 37066 ft | 539 kts | 58° |
| 2026-04-30 21:15 | 34.18979 | -92.29999 | 37064 ft | 541 kts | 58° |
| 2026-04-30 21:15 | 34.22043 | -92.21690 | 37056 ft | 542 kts | 58° |
| 2026-04-30 21:16 | 34.25110 | -92.13349 | 37068 ft | 543 kts | 58° |
| 2026-04-30 21:16 | 34.28176 | -92.04990 | 37061 ft | 544 kts | 58° |
| 2026-04-30 21:17 | 34.31243 | -91.96607 | 37066 ft | 545 kts | 59° |
| 2026-04-30 21:17 | 34.34303 | -91.88224 | 37069 ft | 545 kts | 59° |
| 2026-04-30 21:18 | 34.37346 | -91.79863 | 37056 ft | 545 kts | 59° |
| 2026-04-30 21:18 | 34.40396 | -91.71462 | 37067 ft | 545 kts | 59° |
| 2026-04-30 21:19 | 34.43443 | -91.63045 | 37070 ft | 544 kts | 59° |
| 2026-04-30 21:19 | 34.46473 | -91.54654 | 37073 ft | 543 kts | 59° |
| 2026-04-30 21:20 | 34.49496 | -91.46262 | 37070 ft | 542 kts | 59° |
| 2026-04-30 21:20 | 34.52485 | -91.37944 | 37069 ft | 541 kts | 59° |
| 2026-04-30 21:21 | 34.55484 | -91.29575 | 37069 ft | 540 kts | 59° |
| 2026-04-30 21:22 | 34.59962 | -91.17039 | 37061 ft | 539 kts | 59° |
| 2026-04-30 21:23 | 34.65910 | -91.00313 | 37056 ft | 539 kts | 59° |
| 2026-04-30 21:23 | 34.69841 | -90.89207 | 37066 ft | 539 kts | 59° |
| 2026-04-30 21:24 | 34.72802 | -90.80818 | 37054 ft | 540 kts | 59° |
| 2026-04-30 21:24 | 34.76261 | -90.70988 | 37050 ft | 541 kts | 59° |
| 2026-04-30 21:25 | 34.80671 | -90.58408 | 37043 ft | 541 kts | 59° |
| 2026-04-30 21:26 | 34.84594 | -90.47176 | 37047 ft | 542 kts | 59° |
| 2026-04-30 21:27 | 34.89010 | -90.34484 | 37042 ft | 542 kts | 59° |
| 2026-04-30 21:27 | 34.91947 | -90.26013 | 37048 ft | 542 kts | 59° |
| 2026-04-30 21:28 | 34.96338 | -90.13308 | 37057 ft | 541 kts | 59° |
| 2026-04-30 21:29 | 35.01083 | -90.00990 | 37057 ft | 524 kts | 45° |
| 2026-04-30 21:29 | 35.08421 | -89.91896 | 37076 ft | 486 kts | 22° |
| 2026-04-30 21:30 | 35.13922 | -89.87082 | 37066 ft | 487 kts | 22° |
| 2026-04-30 21:31 | 35.27707 | -89.74821 | 37074 ft | 493 kts | 23° |
| 2026-04-30 21:32 | 35.35977 | -89.67360 | 37074 ft | 496 kts | 23° |
| 2026-04-30 21:32 | 35.41539 | -89.62335 | 37077 ft | 497 kts | 23° |
| 2026-04-30 21:33 | 35.49920 | -89.54750 | 37069 ft | 499 kts | 23° |
| 2026-04-30 21:34 | 35.55508 | -89.49680 | 37072 ft | 500 kts | 23° |
| 2026-04-30 21:34 | 35.63876 | -89.42073 | 37073 ft | 500 kts | 23° |
| 2026-04-30 21:35 | 35.69468 | -89.36978 | 37077 ft | 500 kts | 23° |
| 2026-04-30 21:35 | 35.75048 | -89.31885 | 37086 ft | 500 kts | 23° |
| 2026-04-30 21:36 | 35.80634 | -89.26777 | 37088 ft | 499 kts | 23° |
| 2026-04-30 21:37 | 35.91780 | -89.16559 | 37090 ft | 499 kts | 23° |
| 2026-04-30 21:37 | 35.97351 | -89.11438 | 37082 ft | 499 kts | 23° |
| 2026-04-30 21:38 | 36.02920 | -89.06310 | 37084 ft | 499 kts | 23° |
| 2026-04-30 21:38 | 36.08483 | -89.01176 | 37079 ft | 499 kts | 23° |
| 2026-04-30 21:39 | 36.14006 | -88.96073 | 37072 ft | 499 kts | 23° |
| 2026-04-30 21:39 | 36.19568 | -88.90918 | 37066 ft | 499 kts | 23° |
| 2026-04-30 21:40 | 36.25128 | -88.85751 | 37070 ft | 499 kts | 23° |
| 2026-04-30 21:40 | 36.30684 | -88.80579 | 37070 ft | 500 kts | 23° |
| 2026-04-30 21:41 | 36.36256 | -88.75382 | 37070 ft | 500 kts | 23° |
| 2026-04-30 21:41 | 36.41783 | -88.70219 | 37073 ft | 501 kts | 23° |
| 2026-04-30 21:42 | 36.47351 | -88.65008 | 37078 ft | 501 kts | 23° |
| 2026-04-30 21:42 | 36.52919 | -88.59785 | 37073 ft | 501 kts | 23° |
| 2026-04-30 21:43 | 36.58494 | -88.54547 | 37074 ft | 502 kts | 22° |
| 2026-04-30 21:43 | 36.64062 | -88.49306 | 37075 ft | 502 kts | 23° |
| 2026-04-30 21:44 | 36.69636 | -88.44050 | 37075 ft | 502 kts | 23° |
| 2026-04-30 21:44 | 36.75207 | -88.38786 | 37073 ft | 503 kts | 23° |
| 2026-04-30 21:45 | 36.80780 | -88.33511 | 37075 ft | 503 kts | 23° |
| 2026-04-30 21:45 | 36.86357 | -88.28222 | 37078 ft | 503 kts | 23° |
| 2026-04-30 21:46 | 36.91892 | -88.22963 | 37082 ft | 503 kts | 23° |
| 2026-04-30 21:46 | 36.97460 | -88.17662 | 37070 ft | 502 kts | 23° |
| 2026-04-30 21:47 | 37.03026 | -88.12354 | 37077 ft | 502 kts | 23° |
| 2026-04-30 21:47 | 37.08581 | -88.07046 | 37088 ft | 502 kts | 23° |
| 2026-04-30 21:48 | 37.14141 | -88.01724 | 37092 ft | 502 kts | 23° |
| 2026-04-30 21:48 | 37.19666 | -87.96424 | 37089 ft | 503 kts | 24° |
| 2026-04-30 21:49 | 37.25224 | -87.91082 | 37091 ft | 503 kts | 24° |
| 2026-04-30 21:49 | 37.30778 | -87.85735 | 37088 ft | 503 kts | 24° |
| 2026-04-30 21:50 | 37.36122 | -87.79998 | 37096 ft | 517 kts | 32° |
| 2026-04-30 21:50 | 37.41154 | -87.73455 | 37097 ft | 522 kts | 34° |
| 2026-04-30 21:51 | 37.46139 | -87.66810 | 37101 ft | 521 kts | 34° |
| 2026-04-30 21:51 | 37.51150 | -87.60224 | 37095 ft | 520 kts | 34° |
| 2026-04-30 21:52 | 37.56182 | -87.53678 | 37103 ft | 520 kts | 34° |
| 2026-04-30 21:52 | 37.61218 | -87.47137 | 37106 ft | 519 kts | 34° |
| 2026-04-30 21:53 | 37.66247 | -87.40587 | 37086 ft | 519 kts | 34° |
| 2026-04-30 21:53 | 37.71269 | -87.34026 | 37091 ft | 519 kts | 34° |
| 2026-04-30 21:54 | 37.76251 | -87.27502 | 37087 ft | 518 kts | 34° |
| 2026-04-30 21:54 | 37.81252 | -87.20938 | 37087 ft | 518 kts | 34° |
| 2026-04-30 21:55 | 37.86245 | -87.14372 | 37090 ft | 518 kts | 34° |
| 2026-04-30 21:55 | 37.91241 | -87.07790 | 37098 ft | 518 kts | 34° |
| 2026-04-30 21:56 | 37.96234 | -87.01198 | 37091 ft | 518 kts | 34° |
| 2026-04-30 21:56 | 38.01219 | -86.94603 | 37091 ft | 518 kts | 34° |
| 2026-04-30 21:57 | 38.06205 | -86.87992 | 37091 ft | 519 kts | 34° |
| 2026-04-30 21:57 | 38.11162 | -86.81405 | 37095 ft | 520 kts | 34° |
| 2026-04-30 21:58 | 38.16156 | -86.74756 | 37091 ft | 521 kts | 34° |
| 2026-04-30 21:58 | 38.21160 | -86.68079 | 37093 ft | 522 kts | 34° |
| 2026-04-30 21:59 | 38.26166 | -86.61385 | 37093 ft | 522 kts | 34° |
| 2026-04-30 22:00 | 38.33687 | -86.51300 | 37086 ft | 523 kts | 34° |
| 2026-04-30 22:00 | 38.41200 | -86.41190 | 37083 ft | 523 kts | 34° |
| 2026-04-30 22:01 | 38.46202 | -86.34443 | 37076 ft | 523 kts | 35° |
| 2026-04-30 22:01 | 38.51194 | -86.27694 | 37078 ft | 522 kts | 35° |
| 2026-04-30 22:02 | 38.56146 | -86.20985 | 37080 ft | 522 kts | 35° |
| 2026-04-30 22:02 | 38.61118 | -86.14235 | 37076 ft | 520 kts | 35° |
| 2026-04-30 22:03 | 38.66073 | -86.07492 | 37071 ft | 519 kts | 35° |
| 2026-04-30 22:03 | 38.71015 | -86.00754 | 37073 ft | 518 kts | 36° |
| 2026-04-30 22:04 | 38.75943 | -85.94020 | 37071 ft | 517 kts | 36° |
| 2026-04-30 22:05 | 38.83263 | -85.83989 | 37085 ft | 514 kts | 36° |
| 2026-04-30 22:05 | 38.88149 | -85.77278 | 37090 ft | 514 kts | 36° |
| 2026-04-30 22:06 | 38.93027 | -85.70564 | 37094 ft | 513 kts | 36° |
| 2026-04-30 22:06 | 39.00322 | -85.60495 | 37081 ft | 513 kts | 37° |
| 2026-04-30 22:07 | 39.05181 | -85.53770 | 37079 ft | 513 kts | 37° |
| 2026-04-30 22:07 | 39.10034 | -85.47037 | 37070 ft | 513 kts | 37° |
| 2026-04-30 22:08 | 39.14886 | -85.40291 | 37081 ft | 513 kts | 37° |
| 2026-04-30 22:08 | 39.19695 | -85.33591 | 37079 ft | 513 kts | 38° |
| 2026-04-30 22:09 | 39.24535 | -85.26831 | 37083 ft | 513 kts | 38° |
| 2026-04-30 22:09 | 39.29378 | -85.20055 | 37073 ft | 513 kts | 38° |
| 2026-04-30 22:10 | 39.34216 | -85.13269 | 37077 ft | 513 kts | 38° |
| 2026-04-30 22:10 | 39.39045 | -85.06482 | 37071 ft | 512 kts | 38° |
| 2026-04-30 22:11 | 39.46238 | -84.96344 | 37076 ft | 512 kts | 39° |
| 2026-04-30 22:12 | 39.51064 | -84.89523 | 37066 ft | 512 kts | 39° |
| 2026-04-30 22:12 | 39.55870 | -84.82715 | 37067 ft | 511 kts | 39° |
| 2026-04-30 22:13 | 39.60632 | -84.75955 | 37071 ft | 510 kts | 39° |
| 2026-04-30 22:13 | 39.65416 | -84.69149 | 37076 ft | 510 kts | 39° |
| 2026-04-30 22:14 | 39.70188 | -84.62344 | 37076 ft | 510 kts | 40° |
| 2026-04-30 22:14 | 39.74957 | -84.55528 | 37074 ft | 509 kts | 40° |
| 2026-04-30 22:15 | 39.79718 | -84.48710 | 37069 ft | 508 kts | 40° |
| 2026-04-30 22:15 | 39.84475 | -84.41880 | 37068 ft | 508 kts | 40° |
| 2026-04-30 22:16 | 39.88411 | -84.36219 | 37069 ft | 507 kts | 40° |
| 2026-04-30 22:17 | 39.98124 | -84.23088 | 37069 ft | 501 kts | 36° |
| 2026-04-30 22:17 | 40.05703 | -84.13676 | 37064 ft | 501 kts | 37° |
| 2026-04-30 22:18 | 40.13215 | -84.04164 | 37064 ft | 501 kts | 37° |
| 2026-04-30 22:19 | 40.20709 | -83.94598 | 37059 ft | 501 kts | 37° |
| 2026-04-30 22:20 | 40.28160 | -83.85064 | 37058 ft | 501 kts | 37° |
| 2026-04-30 22:20 | 40.35631 | -83.75476 | 37057 ft | 501 kts | 38° |
| 2026-04-30 22:21 | 40.40612 | -83.69067 | 37056 ft | 501 kts | 38° |
| 2026-04-30 22:21 | 40.45584 | -83.62654 | 37052 ft | 501 kts | 38° |
| 2026-04-30 22:22 | 40.50552 | -83.56232 | 37058 ft | 501 kts | 38° |
| 2026-04-30 22:22 | 40.55520 | -83.49794 | 37044 ft | 501 kts | 38° |
| 2026-04-30 22:23 | 40.60471 | -83.43361 | 37046 ft | 500 kts | 38° |
| 2026-04-30 22:23 | 40.65421 | -83.36916 | 37038 ft | 500 kts | 39° |
| 2026-04-30 22:24 | 40.70335 | -83.30419 | 37038 ft | 502 kts | 43° |
| 2026-04-30 22:24 | 40.74734 | -83.23205 | 37037 ft | 506 kts | 48° |
| 2026-04-30 22:25 | 40.78970 | -83.15790 | 37044 ft | 506 kts | 48° |
| 2026-04-30 22:25 | 40.83207 | -83.08457 | 37029 ft | 505 kts | 47° |
| 2026-04-30 22:26 | 40.89661 | -82.97440 | 37040 ft | 505 kts | 47° |
| 2026-04-30 22:27 | 40.93960 | -82.90097 | 37037 ft | 505 kts | 47° |
| 2026-04-30 22:27 | 41.00391 | -82.79064 | 37033 ft | 505 kts | 48° |
| 2026-04-30 22:28 | 41.06811 | -82.68006 | 37040 ft | 505 kts | 48° |
| 2026-04-30 22:29 | 41.15184 | -82.53045 | 37028 ft | 509 kts | 57° |
| 2026-04-30 22:31 | 41.26792 | -82.23944 | 37027 ft | 510 kts | 59° |
| 2026-04-30 22:32 | 41.35069 | -82.03063 | 37023 ft | 511 kts | 63° |
| 2026-04-30 22:33 | 41.41948 | -81.81284 | 37000 ft | 511 kts | 65° |
| 2026-04-30 22:35 | 41.48865 | -81.59440 | 37030 ft | 511 kts | 65° |
| 2026-04-30 22:36 | 41.55737 | -81.37582 | 37027 ft | 510 kts | 65° |
| 2026-04-30 22:37 | 41.61193 | -81.20154 | 37024 ft | 509 kts | 66° |
| 2026-04-30 22:38 | 41.66628 | -81.02673 | 37017 ft | 508 kts | 66° |
| 2026-04-30 22:39 | 41.70681 | -80.89560 | 37015 ft | 508 kts | 66° |
| 2026-04-30 22:40 | 41.78714 | -80.63378 | 37013 ft | 507 kts | 67° |
| 2026-04-30 22:41 | 41.84929 | -80.41262 | 37012 ft | 507 kts | 70° |
| 2026-04-30 22:43 | 41.92058 | -80.14565 | 37004 ft | 506 kts | 70° |
| 2026-04-30 22:44 | 41.96795 | -79.96808 | 37006 ft | 506 kts | 70° |
| 2026-04-30 22:45 | 42.03867 | -79.70031 | 37005 ft | 506 kts | 71° |
| 2026-04-30 22:47 | 42.10844 | -79.43319 | 36984 ft | 505 kts | 71° |
| 2026-04-30 22:48 | 42.15464 | -79.25470 | 36986 ft | 504 kts | 71° |
| 2026-04-30 22:49 | 42.17905 | -79.11819 | 36992 ft | 497 kts | 94° |
| 2026-04-30 22:49 | 42.15644 | -78.98461 | 36985 ft | 486 kts | 114° |
| 2026-04-30 22:51 | 42.08968 | -78.72594 | 36985 ft | 489 kts | 113° |
| 2026-04-30 22:52 | 42.05674 | -78.59570 | 36981 ft | 490 kts | 113° |
| 2026-04-30 22:53 | 42.01265 | -78.42283 | 36983 ft | 490 kts | 113° |
| 2026-04-30 22:53 | 41.97924 | -78.29276 | 36967 ft | 490 kts | 114° |
| 2026-04-30 22:55 | 41.92336 | -78.07668 | 36955 ft | 489 kts | 114° |
| 2026-04-30 22:56 | 41.87859 | -77.90491 | 36969 ft | 488 kts | 114° |
| 2026-04-30 22:57 | 41.82243 | -77.69044 | 36977 ft | 487 kts | 114° |
| 2026-04-30 22:58 | 41.77728 | -77.51912 | 36960 ft | 487 kts | 114° |
| 2026-04-30 22:59 | 41.70864 | -77.26296 | 36938 ft | 486 kts | 115° |